sensor_id;sensor_type;location;lat;lon;timestamp;P1;durP1;ratioP1;P2;durP2;ratioP2
1735;SDS011;865;53.672;10.250;2023-06-14T00:02:18;0.60;;;0.60;;
1735;SDS011;865;53.672;10.250;2023-06-14T00:04:45;0.50;;;0.50;;
1735;SDS011;865;53.672;10.250;2023-06-14T00:07:11;0.60;;;0.60;;
1735;SDS011;865;53.672;10.250;2023-06-14T00:09:40;0.37;;;0.37;;
1735;SDS011;865;53.672;10.250;2023-06-14T00:12:07;0.77;;;0.77;;
1735;SDS011;865;53.672;10.250;2023-06-14T00:14:35;0.30;;;0.30;;
1735;SDS011;865;53.672;10.250;2023-06-14T00:17:01;0.50;;;0.50;;
1735;SDS011;865;53.672;10.250;2023-06-14T00:19:29;0.40;;;0.40;;
1735;SDS011;865;53.672;10.250;2023-06-14T00:21:59;0.90;;;0.90;;
1735;SDS011;865;53.672;10.250;2023-06-14T00:24:26;0.47;;;0.47;;
1735;SDS011;865;53.672;10.250;2023-06-14T00:26:52;0.90;;;0.90;;
1735;SDS011;865;53.672;10.250;2023-06-14T00:29:19;0.47;;;0.47;;
1735;SDS011;865;53.672;10.250;2023-06-14T00:31:45;0.53;;;0.53;;
1735;SDS011;865;53.672;10.250;2023-06-14T00:34:12;0.60;;;0.60;;
1735;SDS011;865;53.672;10.250;2023-06-14T00:36:38;0.63;;;0.63;;
1735;SDS011;865;53.672;10.250;2023-06-14T00:39:05;1.37;;;1.37;;
1735;SDS011;865;53.672;10.250;2023-06-14T00:41:31;0.87;;;0.87;;
1735;SDS011;865;53.672;10.250;2023-06-14T00:43:57;0.73;;;0.73;;
1735;SDS011;865;53.672;10.250;2023-06-14T00:46:24;0.77;;;0.77;;
1735;SDS011;865;53.672;10.250;2023-06-14T00:48:51;0.70;;;0.70;;
1735;SDS011;865;53.672;10.250;2023-06-14T00:51:18;0.67;;;0.67;;
1735;SDS011;865;53.672;10.250;2023-06-14T00:53:45;0.70;;;0.70;;
1735;SDS011;865;53.672;10.250;2023-06-14T00:56:14;0.90;;;0.90;;
1735;SDS011;865;53.672;10.250;2023-06-14T00:58:41;0.57;;;0.57;;
1735;SDS011;865;53.672;10.250;2023-06-14T01:01:08;0.93;;;0.93;;
1735;SDS011;865;53.672;10.250;2023-06-14T01:03:34;0.00;;;0.00;;
1735;SDS011;865;53.672;10.250;2023-06-14T01:06:05;0.00;;;0.00;;
1735;SDS011;865;53.672;10.250;2023-06-14T01:08:50;0.00;;;0.00;;
1735;SDS011;865;53.672;10.250;2023-06-14T01:11:27;0.00;;;0.00;;
1735;SDS011;865;53.672;10.250;2023-06-14T01:13:57;0.00;;;0.00;;
1735;SDS011;865;53.672;10.250;2023-06-14T01:16:28;0.00;;;0.00;;
1735;SDS011;865;53.672;10.250;2023-06-14T01:18:57;0.00;;;0.00;;
1735;SDS011;865;53.672;10.250;2023-06-14T01:21:24;0.00;;;0.00;;
1735;SDS011;865;53.672;10.250;2023-06-14T01:23:52;0.00;;;0.00;;
1735;SDS011;865;53.672;10.250;2023-06-14T01:26:22;0.00;;;0.00;;
1735;SDS011;865;53.672;10.250;2023-06-14T01:28:49;0.00;;;0.00;;
1735;SDS011;865;53.672;10.250;2023-06-14T01:31:19;0.00;;;0.00;;
1735;SDS011;865;53.672;10.250;2023-06-14T01:33:48;0.00;;;0.00;;
1735;SDS011;865;53.672;10.250;2023-06-14T01:36:18;0.00;;;0.00;;
1735;SDS011;865;53.672;10.250;2023-06-14T01:38:46;0.00;;;0.00;;
1735;SDS011;865;53.672;10.250;2023-06-14T01:41:14;0.00;;;0.00;;
1735;SDS011;865;53.672;10.250;2023-06-14T01:43:42;0.00;;;0.00;;
1735;SDS011;865;53.672;10.250;2023-06-14T01:46:09;0.00;;;0.00;;
1735;SDS011;865;53.672;10.250;2023-06-14T01:48:36;0.00;;;0.00;;
1735;SDS011;865;53.672;10.250;2023-06-14T01:51:03;0.00;;;0.00;;
1735;SDS011;865;53.672;10.250;2023-06-14T01:53:29;0.00;;;0.00;;
1735;SDS011;865;53.672;10.250;2023-06-14T01:55:56;0.00;;;0.00;;
1735;SDS011;865;53.672;10.250;2023-06-14T01:58:22;0.00;;;0.00;;
1735;SDS011;865;53.672;10.250;2023-06-14T02:00:50;0.00;;;0.00;;
1735;SDS011;865;53.672;10.250;2023-06-14T02:03:17;0.00;;;0.00;;
1735;SDS011;865;53.672;10.250;2023-06-14T02:05:45;0.00;;;0.00;;
1735;SDS011;865;53.672;10.250;2023-06-14T02:08:12;0.00;;;0.00;;
1735;SDS011;865;53.672;10.250;2023-06-14T02:10:38;0.00;;;0.00;;
1735;SDS011;865;53.672;10.250;2023-06-14T02:13:05;0.00;;;0.00;;
1735;SDS011;865;53.672;10.250;2023-06-14T02:15:31;0.00;;;0.00;;
1735;SDS011;865;53.672;10.250;2023-06-14T02:18:01;0.00;;;0.00;;
1735;SDS011;865;53.672;10.250;2023-06-14T02:20:29;0.00;;;0.00;;
1735;SDS011;865;53.672;10.250;2023-06-14T02:22:56;0.00;;;0.00;;
1735;SDS011;865;53.672;10.250;2023-06-14T02:25:23;0.00;;;0.00;;
1735;SDS011;865;53.672;10.250;2023-06-14T02:27:50;0.00;;;0.00;;
1735;SDS011;865;53.672;10.250;2023-06-14T02:30:16;0.00;;;0.00;;
1735;SDS011;865;53.672;10.250;2023-06-14T02:32:43;0.00;;;0.00;;
1735;SDS011;865;53.672;10.250;2023-06-14T02:35:10;0.00;;;0.00;;
1735;SDS011;865;53.672;10.250;2023-06-14T02:37:36;0.00;;;0.00;;
1735;SDS011;865;53.672;10.250;2023-06-14T02:40:03;0.00;;;0.00;;
1735;SDS011;865;53.672;10.250;2023-06-14T02:42:30;0.00;;;0.00;;
1735;SDS011;865;53.672;10.250;2023-06-14T02:44:57;0.00;;;0.00;;
1735;SDS011;865;53.672;10.250;2023-06-14T02:47:24;0.00;;;0.00;;
1735;SDS011;865;53.672;10.250;2023-06-14T02:49:50;0.00;;;0.00;;
1735;SDS011;865;53.672;10.250;2023-06-14T02:52:17;0.00;;;0.00;;
1735;SDS011;865;53.672;10.250;2023-06-14T02:54:43;0.00;;;0.00;;
1735;SDS011;865;53.672;10.250;2023-06-14T02:57:10;0.00;;;0.00;;
1735;SDS011;865;53.672;10.250;2023-06-14T02:59:37;0.00;;;0.00;;
1735;SDS011;865;53.672;10.250;2023-06-14T03:02:03;0.00;;;0.00;;
1735;SDS011;865;53.672;10.250;2023-06-14T03:04:30;0.00;;;0.00;;
1735;SDS011;865;53.672;10.250;2023-06-14T03:07:01;0.00;;;0.00;;
1735;SDS011;865;53.672;10.250;2023-06-14T03:09:28;0.00;;;0.00;;
1735;SDS011;865;53.672;10.250;2023-06-14T03:11:55;0.00;;;0.00;;
1735;SDS011;865;53.672;10.250;2023-06-14T03:14:22;0.00;;;0.00;;
1735;SDS011;865;53.672;10.250;2023-06-14T03:16:48;0.00;;;0.00;;
1735;SDS011;865;53.672;10.250;2023-06-14T03:19:16;0.00;;;0.00;;
1735;SDS011;865;53.672;10.250;2023-06-14T03:21:43;0.00;;;0.00;;
1735;SDS011;865;53.672;10.250;2023-06-14T03:24:11;0.00;;;0.00;;
1735;SDS011;865;53.672;10.250;2023-06-14T03:26:37;0.00;;;0.00;;
1735;SDS011;865;53.672;10.250;2023-06-14T03:29:04;0.00;;;0.00;;
1735;SDS011;865;53.672;10.250;2023-06-14T03:31:31;0.00;;;0.00;;
1735;SDS011;865;53.672;10.250;2023-06-14T03:33:59;0.00;;;0.00;;
1735;SDS011;865;53.672;10.250;2023-06-14T03:36:25;0.00;;;0.00;;
1735;SDS011;865;53.672;10.250;2023-06-14T03:38:54;0.00;;;0.00;;
1735;SDS011;865;53.672;10.250;2023-06-14T03:41:23;0.00;;;0.00;;
1735;SDS011;865;53.672;10.250;2023-06-14T03:43:49;0.00;;;0.00;;
1735;SDS011;865;53.672;10.250;2023-06-14T03:46:16;0.00;;;0.00;;
1735;SDS011;865;53.672;10.250;2023-06-14T03:48:42;0.00;;;0.00;;
1735;SDS011;865;53.672;10.250;2023-06-14T03:51:09;0.00;;;0.00;;
1735;SDS011;865;53.672;10.250;2023-06-14T03:53:36;0.00;;;0.00;;
1735;SDS011;865;53.672;10.250;2023-06-14T03:56:19;0.00;;;0.00;;
1735;SDS011;865;53.672;10.250;2023-06-14T03:58:45;0.00;;;0.00;;
1735;SDS011;865;53.672;10.250;2023-06-14T04:01:12;0.00;;;0.00;;
1735;SDS011;865;53.672;10.250;2023-06-14T04:03:38;0.00;;;0.00;;
1735;SDS011;865;53.672;10.250;2023-06-14T04:06:06;0.00;;;0.00;;
1735;SDS011;865;53.672;10.250;2023-06-14T04:08:34;0.00;;;0.00;;
1735;SDS011;865;53.672;10.250;2023-06-14T04:11:01;0.00;;;0.00;;
1735;SDS011;865;53.672;10.250;2023-06-14T04:13:28;0.00;;;0.00;;
1735;SDS011;865;53.672;10.250;2023-06-14T04:15:54;0.00;;;0.00;;
1735;SDS011;865;53.672;10.250;2023-06-14T04:18:23;0.00;;;0.00;;
1735;SDS011;865;53.672;10.250;2023-06-14T04:20:50;0.00;;;0.00;;
1735;SDS011;865;53.672;10.250;2023-06-14T04:23:17;0.00;;;0.00;;
1735;SDS011;865;53.672;10.250;2023-06-14T04:25:47;0.00;;;0.00;;
1735;SDS011;865;53.672;10.250;2023-06-14T04:28:15;0.00;;;0.00;;
1735;SDS011;865;53.672;10.250;2023-06-14T04:30:43;0.00;;;0.00;;
1735;SDS011;865;53.672;10.250;2023-06-14T04:33:10;0.00;;;0.00;;
1735;SDS011;865;53.672;10.250;2023-06-14T04:35:37;0.00;;;0.00;;
1735;SDS011;865;53.672;10.250;2023-06-14T04:38:05;0.00;;;0.00;;
1735;SDS011;865;53.672;10.250;2023-06-14T04:40:32;0.00;;;0.00;;
1735;SDS011;865;53.672;10.250;2023-06-14T04:42:59;0.00;;;0.00;;
1735;SDS011;865;53.672;10.250;2023-06-14T04:45:27;0.00;;;0.00;;
1735;SDS011;865;53.672;10.250;2023-06-14T04:48:00;0.00;;;0.00;;
1735;SDS011;865;53.672;10.250;2023-06-14T04:50:27;0.00;;;0.00;;
1735;SDS011;865;53.672;10.250;2023-06-14T04:52:55;0.00;;;0.00;;
1735;SDS011;865;53.672;10.250;2023-06-14T04:55:23;0.00;;;0.00;;
1735;SDS011;865;53.672;10.250;2023-06-14T04:57:50;0.00;;;0.00;;
1735;SDS011;865;53.672;10.250;2023-06-14T05:00:19;0.00;;;0.00;;
1735;SDS011;865;53.672;10.250;2023-06-14T05:02:47;0.00;;;0.00;;
1735;SDS011;865;53.672;10.250;2023-06-14T05:05:15;0.00;;;0.00;;
1735;SDS011;865;53.672;10.250;2023-06-14T05:07:42;0.00;;;0.00;;
1735;SDS011;865;53.672;10.250;2023-06-14T05:10:09;0.00;;;0.00;;
1735;SDS011;865;53.672;10.250;2023-06-14T05:12:36;0.00;;;0.00;;
1735;SDS011;865;53.672;10.250;2023-06-14T05:15:03;0.00;;;0.00;;
1735;SDS011;865;53.672;10.250;2023-06-14T05:17:29;0.00;;;0.00;;
1735;SDS011;865;53.672;10.250;2023-06-14T05:19:56;0.00;;;0.00;;
1735;SDS011;865;53.672;10.250;2023-06-14T05:22:22;0.00;;;0.00;;
1735;SDS011;865;53.672;10.250;2023-06-14T05:24:49;0.00;;;0.00;;
1735;SDS011;865;53.672;10.250;2023-06-14T05:27:16;0.00;;;0.00;;
1735;SDS011;865;53.672;10.250;2023-06-14T05:29:42;0.00;;;0.00;;
1735;SDS011;865;53.672;10.250;2023-06-14T05:32:09;0.00;;;0.00;;
1735;SDS011;865;53.672;10.250;2023-06-14T05:34:35;0.00;;;0.00;;
1735;SDS011;865;53.672;10.250;2023-06-14T05:37:02;0.00;;;0.00;;
1735;SDS011;865;53.672;10.250;2023-06-14T05:39:30;0.00;;;0.00;;
1735;SDS011;865;53.672;10.250;2023-06-14T05:41:56;0.00;;;0.00;;
1735;SDS011;865;53.672;10.250;2023-06-14T05:44:22;0.00;;;0.00;;
1735;SDS011;865;53.672;10.250;2023-06-14T05:46:50;0.00;;;0.00;;
1735;SDS011;865;53.672;10.250;2023-06-14T05:49:18;0.00;;;0.00;;
1735;SDS011;865;53.672;10.250;2023-06-14T05:51:45;0.00;;;0.00;;
1735;SDS011;865;53.672;10.250;2023-06-14T05:54:11;0.00;;;0.00;;
1735;SDS011;865;53.672;10.250;2023-06-14T05:56:38;0.00;;;0.00;;
1735;SDS011;865;53.672;10.250;2023-06-14T05:59:04;0.00;;;0.00;;
1735;SDS011;865;53.672;10.250;2023-06-14T06:01:31;0.00;;;0.00;;
1735;SDS011;865;53.672;10.250;2023-06-14T06:04:00;0.00;;;0.00;;
1735;SDS011;865;53.672;10.250;2023-06-14T06:06:26;0.00;;;0.00;;
1735;SDS011;865;53.672;10.250;2023-06-14T06:08:53;0.00;;;0.00;;
1735;SDS011;865;53.672;10.250;2023-06-14T06:11:19;0.00;;;0.00;;
1735;SDS011;865;53.672;10.250;2023-06-14T06:13:46;0.00;;;0.00;;
1735;SDS011;865;53.672;10.250;2023-06-14T06:16:13;0.00;;;0.00;;
1735;SDS011;865;53.672;10.250;2023-06-14T06:18:39;0.00;;;0.00;;
1735;SDS011;865;53.672;10.250;2023-06-14T06:21:08;0.00;;;0.00;;
1735;SDS011;865;53.672;10.250;2023-06-14T06:23:35;0.00;;;0.00;;
1735;SDS011;865;53.672;10.250;2023-06-14T06:26:02;0.00;;;0.00;;
1735;SDS011;865;53.672;10.250;2023-06-14T06:28:29;0.00;;;0.00;;
1735;SDS011;865;53.672;10.250;2023-06-14T06:30:56;0.00;;;0.00;;
1735;SDS011;865;53.672;10.250;2023-06-14T06:33:22;0.00;;;0.00;;
1735;SDS011;865;53.672;10.250;2023-06-14T06:35:49;0.00;;;0.00;;
1735;SDS011;865;53.672;10.250;2023-06-14T06:38:16;0.00;;;0.00;;
1735;SDS011;865;53.672;10.250;2023-06-14T06:40:44;0.00;;;0.00;;
1735;SDS011;865;53.672;10.250;2023-06-14T06:43:11;0.00;;;0.00;;
1735;SDS011;865;53.672;10.250;2023-06-14T06:45:42;0.00;;;0.00;;
1735;SDS011;865;53.672;10.250;2023-06-14T06:48:09;0.00;;;0.00;;
1735;SDS011;865;53.672;10.250;2023-06-14T06:50:36;0.00;;;0.00;;
1735;SDS011;865;53.672;10.250;2023-06-14T06:53:03;0.00;;;0.00;;
1735;SDS011;865;53.672;10.250;2023-06-14T06:55:29;0.00;;;0.00;;
1735;SDS011;865;53.672;10.250;2023-06-14T06:57:56;0.00;;;0.00;;
1735;SDS011;865;53.672;10.250;2023-06-14T07:00:22;0.00;;;0.00;;
1735;SDS011;865;53.672;10.250;2023-06-14T07:02:51;0.00;;;0.00;;
1735;SDS011;865;53.672;10.250;2023-06-14T07:05:18;0.00;;;0.00;;
1735;SDS011;865;53.672;10.250;2023-06-14T07:07:45;0.00;;;0.00;;
1735;SDS011;865;53.672;10.250;2023-06-14T07:10:12;0.00;;;0.00;;
1735;SDS011;865;53.672;10.250;2023-06-14T07:12:38;0.00;;;0.00;;
1735;SDS011;865;53.672;10.250;2023-06-14T07:15:08;0.00;;;0.00;;
1735;SDS011;865;53.672;10.250;2023-06-14T07:17:35;0.00;;;0.00;;
1735;SDS011;865;53.672;10.250;2023-06-14T07:20:03;0.00;;;0.00;;
1735;SDS011;865;53.672;10.250;2023-06-14T07:22:33;0.00;;;0.00;;
1735;SDS011;865;53.672;10.250;2023-06-14T07:25:00;0.00;;;0.00;;
1735;SDS011;865;53.672;10.250;2023-06-14T07:27:28;0.00;;;0.00;;
1735;SDS011;865;53.672;10.250;2023-06-14T07:29:56;0.00;;;0.00;;
1735;SDS011;865;53.672;10.250;2023-06-14T07:32:22;0.00;;;0.00;;
1735;SDS011;865;53.672;10.250;2023-06-14T07:34:49;0.00;;;0.00;;
1735;SDS011;865;53.672;10.250;2023-06-14T07:37:15;0.00;;;0.00;;
1735;SDS011;865;53.672;10.250;2023-06-14T07:39:41;0.00;;;0.00;;
1735;SDS011;865;53.672;10.250;2023-06-14T07:42:08;0.00;;;0.00;;
1735;SDS011;865;53.672;10.250;2023-06-14T07:44:34;0.00;;;0.00;;
1735;SDS011;865;53.672;10.250;2023-06-14T07:47:02;0.00;;;0.00;;
1735;SDS011;865;53.672;10.250;2023-06-14T07:49:28;0.00;;;0.00;;
1735;SDS011;865;53.672;10.250;2023-06-14T07:51:54;0.00;;;0.00;;
1735;SDS011;865;53.672;10.250;2023-06-14T07:54:21;0.00;;;0.00;;
1735;SDS011;865;53.672;10.250;2023-06-14T07:56:51;0.00;;;0.00;;
1735;SDS011;865;53.672;10.250;2023-06-14T07:59:18;0.00;;;0.00;;
1735;SDS011;865;53.672;10.250;2023-06-14T08:01:44;0.00;;;0.00;;
1735;SDS011;865;53.672;10.250;2023-06-14T08:04:16;0.00;;;0.00;;
1735;SDS011;865;53.672;10.250;2023-06-14T08:06:42;0.00;;;0.00;;
1735;SDS011;865;53.672;10.250;2023-06-14T08:09:12;0.00;;;0.00;;
1735;SDS011;865;53.672;10.250;2023-06-14T08:11:39;0.00;;;0.00;;
1735;SDS011;865;53.672;10.250;2023-06-14T08:14:05;0.00;;;0.00;;
1735;SDS011;865;53.672;10.250;2023-06-14T08:16:32;0.00;;;0.00;;
1735;SDS011;865;53.672;10.250;2023-06-14T08:18:59;0.00;;;0.00;;
1735;SDS011;865;53.672;10.250;2023-06-14T08:21:25;0.00;;;0.00;;
1735;SDS011;865;53.672;10.250;2023-06-14T08:23:55;0.00;;;0.00;;
1735;SDS011;865;53.672;10.250;2023-06-14T08:26:22;0.00;;;0.00;;
1735;SDS011;865;53.672;10.250;2023-06-14T08:28:48;0.00;;;0.00;;
1735;SDS011;865;53.672;10.250;2023-06-14T08:31:15;0.00;;;0.00;;
1735;SDS011;865;53.672;10.250;2023-06-14T08:33:41;0.00;;;0.00;;
1735;SDS011;865;53.672;10.250;2023-06-14T08:36:09;0.00;;;0.00;;
1735;SDS011;865;53.672;10.250;2023-06-14T08:38:37;0.00;;;0.00;;
1735;SDS011;865;53.672;10.250;2023-06-14T08:41:04;0.00;;;0.00;;
1735;SDS011;865;53.672;10.250;2023-06-14T08:43:35;0.00;;;0.00;;
1735;SDS011;865;53.672;10.250;2023-06-14T08:46:02;0.00;;;0.00;;
1735;SDS011;865;53.672;10.250;2023-06-14T08:48:30;0.00;;;0.00;;
1735;SDS011;865;53.672;10.250;2023-06-14T08:51:01;0.00;;;0.00;;
1735;SDS011;865;53.672;10.250;2023-06-14T08:53:30;0.00;;;0.00;;
1735;SDS011;865;53.672;10.250;2023-06-14T08:56:01;0.00;;;0.00;;
1735;SDS011;865;53.672;10.250;2023-06-14T08:58:31;0.00;;;0.00;;
1735;SDS011;865;53.672;10.250;2023-06-14T09:01:03;0.00;;;0.00;;
1735;SDS011;865;53.672;10.250;2023-06-14T09:03:30;0.00;;;0.00;;
1735;SDS011;865;53.672;10.250;2023-06-14T09:05:57;0.00;;;0.00;;
1735;SDS011;865;53.672;10.250;2023-06-14T09:08:27;0.00;;;0.00;;
1735;SDS011;865;53.672;10.250;2023-06-14T09:10:57;0.00;;;0.00;;
1735;SDS011;865;53.672;10.250;2023-06-14T09:13:23;0.00;;;0.00;;
1735;SDS011;865;53.672;10.250;2023-06-14T09:15:50;0.00;;;0.00;;
1735;SDS011;865;53.672;10.250;2023-06-14T09:18:17;0.00;;;0.00;;
1735;SDS011;865;53.672;10.250;2023-06-14T09:20:46;0.00;;;0.00;;
1735;SDS011;865;53.672;10.250;2023-06-14T09:23:14;0.00;;;0.00;;
1735;SDS011;865;53.672;10.250;2023-06-14T09:25:47;0.00;;;0.00;;
1735;SDS011;865;53.672;10.250;2023-06-14T09:28:14;0.00;;;0.00;;
1735;SDS011;865;53.672;10.250;2023-06-14T09:30:40;0.00;;;0.00;;
1735;SDS011;865;53.672;10.250;2023-06-14T09:33:07;0.00;;;0.00;;
1735;SDS011;865;53.672;10.250;2023-06-14T09:35:34;0.00;;;0.00;;
1735;SDS011;865;53.672;10.250;2023-06-14T09:38:01;0.00;;;0.00;;
1735;SDS011;865;53.672;10.250;2023-06-14T09:40:27;0.00;;;0.00;;
1735;SDS011;865;53.672;10.250;2023-06-14T09:42:54;0.00;;;0.00;;
1735;SDS011;865;53.672;10.250;2023-06-14T09:45:24;0.00;;;0.00;;
1735;SDS011;865;53.672;10.250;2023-06-14T09:47:56;0.00;;;0.00;;
1735;SDS011;865;53.672;10.250;2023-06-14T09:50:27;0.00;;;0.00;;
1735;SDS011;865;53.672;10.250;2023-06-14T09:52:54;0.00;;;0.00;;
1735;SDS011;865;53.672;10.250;2023-06-14T09:55:28;0.00;;;0.00;;
1735;SDS011;865;53.672;10.250;2023-06-14T09:57:57;0.00;;;0.00;;
1735;SDS011;865;53.672;10.250;2023-06-14T10:00:26;0.00;;;0.00;;
1735;SDS011;865;53.672;10.250;2023-06-14T10:02:54;0.00;;;0.00;;
1735;SDS011;865;53.672;10.250;2023-06-14T10:05:25;0.00;;;0.00;;
1735;SDS011;865;53.672;10.250;2023-06-14T10:08:04;0.00;;;0.00;;
1735;SDS011;865;53.672;10.250;2023-06-14T10:10:34;0.00;;;0.00;;
1735;SDS011;865;53.672;10.250;2023-06-14T10:13:01;0.00;;;0.00;;
1735;SDS011;865;53.672;10.250;2023-06-14T10:15:32;0.00;;;0.00;;
1735;SDS011;865;53.672;10.250;2023-06-14T10:18:09;0.00;;;0.00;;
1735;SDS011;865;53.672;10.250;2023-06-14T10:20:53;0.00;;;0.00;;
1735;SDS011;865;53.672;10.250;2023-06-14T10:23:30;0.00;;;0.00;;
1735;SDS011;865;53.672;10.250;2023-06-14T10:26:01;0.00;;;0.00;;
1735;SDS011;865;53.672;10.250;2023-06-14T10:28:27;0.00;;;0.00;;
1735;SDS011;865;53.672;10.250;2023-06-14T10:31:03;0.00;;;0.00;;
1735;SDS011;865;53.672;10.250;2023-06-14T10:33:35;0.00;;;0.00;;
1735;SDS011;865;53.672;10.250;2023-06-14T10:38:58;0.00;;;0.00;;
1735;SDS011;865;53.672;10.250;2023-06-14T10:41:29;0.00;;;0.00;;
1735;SDS011;865;53.672;10.250;2023-06-14T10:46:45;0.00;;;0.00;;
1735;SDS011;865;53.672;10.250;2023-06-14T10:49:16;0.00;;;0.00;;
1735;SDS011;865;53.672;10.250;2023-06-14T10:51:51;0.00;;;0.00;;
1735;SDS011;865;53.672;10.250;2023-06-14T10:54:22;0.00;;;0.00;;
1735;SDS011;865;53.672;10.250;2023-06-14T10:56:50;0.00;;;0.00;;
1735;SDS011;865;53.672;10.250;2023-06-14T10:59:18;0.00;;;0.00;;
1735;SDS011;865;53.672;10.250;2023-06-14T11:04:50;0.00;;;0.00;;
1735;SDS011;865;53.672;10.250;2023-06-14T11:07:34;0.00;;;0.00;;
1735;SDS011;865;53.672;10.250;2023-06-14T11:10:17;0.00;;;0.00;;
1735;SDS011;865;53.672;10.250;2023-06-14T11:12:59;0.00;;;0.00;;
1735;SDS011;865;53.672;10.250;2023-06-14T11:15:28;0.00;;;0.00;;
1735;SDS011;865;53.672;10.250;2023-06-14T11:17:56;0.00;;;0.00;;
1735;SDS011;865;53.672;10.250;2023-06-14T11:20:27;0.00;;;0.00;;
1735;SDS011;865;53.672;10.250;2023-06-14T11:22:55;0.00;;;0.00;;
1735;SDS011;865;53.672;10.250;2023-06-14T11:25:22;0.00;;;0.00;;
1735;SDS011;865;53.672;10.250;2023-06-14T11:27:49;0.00;;;0.00;;
1735;SDS011;865;53.672;10.250;2023-06-14T11:30:16;0.00;;;0.00;;
1735;SDS011;865;53.672;10.250;2023-06-14T11:32:46;0.00;;;0.00;;
1735;SDS011;865;53.672;10.250;2023-06-14T11:35:14;0.00;;;0.00;;
1735;SDS011;865;53.672;10.250;2023-06-14T11:37:42;0.00;;;0.00;;
1735;SDS011;865;53.672;10.250;2023-06-14T11:40:11;0.00;;;0.00;;
1735;SDS011;865;53.672;10.250;2023-06-14T11:42:39;0.00;;;0.00;;
1735;SDS011;865;53.672;10.250;2023-06-14T11:45:07;0.00;;;0.00;;
1735;SDS011;865;53.672;10.250;2023-06-14T11:47:35;0.00;;;0.00;;
1735;SDS011;865;53.672;10.250;2023-06-14T11:50:03;0.00;;;0.00;;
1735;SDS011;865;53.672;10.250;2023-06-14T11:52:32;0.00;;;0.00;;
1735;SDS011;865;53.672;10.250;2023-06-14T11:54:59;0.00;;;0.00;;
1735;SDS011;865;53.672;10.250;2023-06-14T11:57:25;0.00;;;0.00;;
1735;SDS011;865;53.672;10.250;2023-06-14T11:59:52;0.00;;;0.00;;
1735;SDS011;865;53.672;10.250;2023-06-14T12:02:21;0.00;;;0.00;;
1735;SDS011;865;53.672;10.250;2023-06-14T12:04:50;0.00;;;0.00;;
1735;SDS011;865;53.672;10.250;2023-06-14T12:07:17;0.00;;;0.00;;
1735;SDS011;865;53.672;10.250;2023-06-14T12:12:25;0.00;;;0.00;;
1735;SDS011;865;53.672;10.250;2023-06-14T12:14:53;0.00;;;0.00;;
1735;SDS011;865;53.672;10.250;2023-06-14T12:17:22;0.00;;;0.00;;
1735;SDS011;865;53.672;10.250;2023-06-14T12:19:49;0.00;;;0.00;;
1735;SDS011;865;53.672;10.250;2023-06-14T12:22:16;0.00;;;0.00;;
1735;SDS011;865;53.672;10.250;2023-06-14T12:24:43;0.00;;;0.00;;
1735;SDS011;865;53.672;10.250;2023-06-14T12:27:10;0.00;;;0.00;;
1735;SDS011;865;53.672;10.250;2023-06-14T12:29:44;0.00;;;0.00;;
1735;SDS011;865;53.672;10.250;2023-06-14T12:32:11;0.00;;;0.00;;
1735;SDS011;865;53.672;10.250;2023-06-14T12:34:38;0.00;;;0.00;;
1735;SDS011;865;53.672;10.250;2023-06-14T12:37:04;0.00;;;0.00;;
1735;SDS011;865;53.672;10.250;2023-06-14T12:39:32;0.00;;;0.00;;
1735;SDS011;865;53.672;10.250;2023-06-14T12:41:59;0.00;;;0.00;;
1735;SDS011;865;53.672;10.250;2023-06-14T12:44:25;0.00;;;0.00;;
1735;SDS011;865;53.672;10.250;2023-06-14T12:46:52;0.00;;;0.00;;
1735;SDS011;865;53.672;10.250;2023-06-14T12:49:20;0.00;;;0.00;;
1735;SDS011;865;53.672;10.250;2023-06-14T12:51:47;0.00;;;0.00;;
1735;SDS011;865;53.672;10.250;2023-06-14T12:54:13;0.00;;;0.00;;
1735;SDS011;865;53.672;10.250;2023-06-14T12:56:40;0.00;;;0.00;;
1735;SDS011;865;53.672;10.250;2023-06-14T12:59:09;0.00;;;0.00;;
1735;SDS011;865;53.672;10.250;2023-06-14T13:01:37;0.00;;;0.00;;
1735;SDS011;865;53.672;10.250;2023-06-14T13:04:05;0.00;;;0.00;;
1735;SDS011;865;53.672;10.250;2023-06-14T13:06:31;0.00;;;0.00;;
1735;SDS011;865;53.672;10.250;2023-06-14T13:08:58;0.00;;;0.00;;
1735;SDS011;865;53.672;10.250;2023-06-14T13:11:27;0.00;;;0.00;;
1735;SDS011;865;53.672;10.250;2023-06-14T13:13:53;0.00;;;0.00;;
1735;SDS011;865;53.672;10.250;2023-06-14T13:16:20;0.00;;;0.00;;
1735;SDS011;865;53.672;10.250;2023-06-14T13:18:47;0.00;;;0.00;;
1735;SDS011;865;53.672;10.250;2023-06-14T13:21:13;0.00;;;0.00;;
1735;SDS011;865;53.672;10.250;2023-06-14T13:23:40;0.00;;;0.00;;
1735;SDS011;865;53.672;10.250;2023-06-14T13:26:06;0.00;;;0.00;;
1735;SDS011;865;53.672;10.250;2023-06-14T13:28:33;0.00;;;0.00;;
1735;SDS011;865;53.672;10.250;2023-06-14T13:31:01;0.00;;;0.00;;
1735;SDS011;865;53.672;10.250;2023-06-14T13:33:28;0.00;;;0.00;;
1735;SDS011;865;53.672;10.250;2023-06-14T13:35:54;0.00;;;0.00;;
1735;SDS011;865;53.672;10.250;2023-06-14T13:38:21;0.00;;;0.00;;
1735;SDS011;865;53.672;10.250;2023-06-14T13:40:47;0.00;;;0.00;;
1735;SDS011;865;53.672;10.250;2023-06-14T13:43:14;0.00;;;0.00;;
1735;SDS011;865;53.672;10.250;2023-06-14T13:45:40;0.00;;;0.00;;
1735;SDS011;865;53.672;10.250;2023-06-14T13:48:07;0.00;;;0.00;;
1735;SDS011;865;53.672;10.250;2023-06-14T13:50:34;0.00;;;0.00;;
1735;SDS011;865;53.672;10.250;2023-06-14T13:53:01;0.00;;;0.00;;
1735;SDS011;865;53.672;10.250;2023-06-14T13:55:28;0.00;;;0.00;;
1735;SDS011;865;53.672;10.250;2023-06-14T13:57:54;0.00;;;0.00;;
1735;SDS011;865;53.672;10.250;2023-06-14T14:00:24;0.00;;;0.00;;
1735;SDS011;865;53.672;10.250;2023-06-14T14:02:51;0.00;;;0.00;;
1735;SDS011;865;53.672;10.250;2023-06-14T14:05:18;0.00;;;0.00;;
1735;SDS011;865;53.672;10.250;2023-06-14T14:07:44;0.00;;;0.00;;
1735;SDS011;865;53.672;10.250;2023-06-14T14:10:11;0.00;;;0.00;;
1735;SDS011;865;53.672;10.250;2023-06-14T14:12:39;0.00;;;0.00;;
1735;SDS011;865;53.672;10.250;2023-06-14T14:15:06;0.00;;;0.00;;
1735;SDS011;865;53.672;10.250;2023-06-14T14:17:39;0.00;;;0.00;;
1735;SDS011;865;53.672;10.250;2023-06-14T14:20:06;0.00;;;0.00;;
1735;SDS011;865;53.672;10.250;2023-06-14T14:22:33;0.00;;;0.00;;
1735;SDS011;865;53.672;10.250;2023-06-14T14:25:00;0.00;;;0.00;;
1735;SDS011;865;53.672;10.250;2023-06-14T14:27:26;0.00;;;0.00;;
1735;SDS011;865;53.672;10.250;2023-06-14T14:29:53;0.00;;;0.00;;
1735;SDS011;865;53.672;10.250;2023-06-14T14:32:19;0.00;;;0.00;;
1735;SDS011;865;53.672;10.250;2023-06-14T14:34:46;0.00;;;0.00;;
1735;SDS011;865;53.672;10.250;2023-06-14T14:37:12;0.00;;;0.00;;
1735;SDS011;865;53.672;10.250;2023-06-14T14:39:41;0.00;;;0.00;;
1735;SDS011;865;53.672;10.250;2023-06-14T14:42:07;0.00;;;0.00;;
1735;SDS011;865;53.672;10.250;2023-06-14T14:44:34;0.00;;;0.00;;
1735;SDS011;865;53.672;10.250;2023-06-14T14:47:02;0.00;;;0.00;;
1735;SDS011;865;53.672;10.250;2023-06-14T14:49:29;0.00;;;0.00;;
1735;SDS011;865;53.672;10.250;2023-06-14T14:51:57;0.00;;;0.00;;
1735;SDS011;865;53.672;10.250;2023-06-14T14:54:40;0.00;;;0.00;;
1735;SDS011;865;53.672;10.250;2023-06-14T14:57:08;0.00;;;0.00;;
1735;SDS011;865;53.672;10.250;2023-06-14T14:59:34;0.00;;;0.00;;
1735;SDS011;865;53.672;10.250;2023-06-14T15:02:01;0.00;;;0.00;;
1735;SDS011;865;53.672;10.250;2023-06-14T15:04:28;0.00;;;0.00;;
1735;SDS011;865;53.672;10.250;2023-06-14T15:06:54;0.00;;;0.00;;
1735;SDS011;865;53.672;10.250;2023-06-14T15:09:21;0.00;;;0.00;;
1735;SDS011;865;53.672;10.250;2023-06-14T15:11:47;0.00;;;0.00;;
1735;SDS011;865;53.672;10.250;2023-06-14T15:14:13;0.00;;;0.00;;
1735;SDS011;865;53.672;10.250;2023-06-14T15:16:41;0.00;;;0.00;;
1735;SDS011;865;53.672;10.250;2023-06-14T15:19:07;0.00;;;0.00;;
1735;SDS011;865;53.672;10.250;2023-06-14T15:21:34;0.00;;;0.00;;
1735;SDS011;865;53.672;10.250;2023-06-14T15:24:01;0.00;;;0.00;;
1735;SDS011;865;53.672;10.250;2023-06-14T15:26:27;0.00;;;0.00;;
1735;SDS011;865;53.672;10.250;2023-06-14T15:28:55;0.00;;;0.00;;
1735;SDS011;865;53.672;10.250;2023-06-14T15:31:22;0.00;;;0.00;;